Time;durP1;ratioP1;P1;durP2;ratioP2;P2;SDS_P1;SDS_P2;PMS_P1;PMS_P2;Temp;Humidity;BMP_temperature;BMP_pressure;BME280_temperature;BME280_humidity;BME280_pressure;Samples;Min_cycle;Max_cycle;Signal;HPM_P1;HPM_P2
2021/03/13 00:00:52;;;;;;;61.47;36.22;;;;;;;2.58;83.07;100479.44;5091337;28;20057;-71
2021/03/13 00:03:19;;;;;;;67.30;39.05;;;;;;;2.64;82.51;100487.03;5091118;28;20077;-70
2021/03/13 00:05:46;;;;;;;76.97;45.58;;;;;;;2.41;83.66;100469.22;5072959;28;20028;-70
2021/03/13 00:08:13;;;;;;;81.68;47.70;;;;;;;2.38;81.86;100469.16;5073168;28;20546;-70
2021/03/13 00:10:46;;;;;;;91.40;52.20;;;;;;;2.42;82.23;100452.47;5073121;28;20028;-70
2021/03/13 00:13:16;;;;;;;92.57;51.90;;;;;;;2.29;81.96;100445.63;5072997;28;20043;-71
2021/03/13 00:15:48;;;;;;;93.07;53.13;;;;;;;2.27;82.42;100457.31;5091223;28;20024;-69
2021/03/13 00:18:14;;;;;;;91.20;51.45;;;;;;;2.65;80.92;100461.16;5072988;28;20032;-70
2021/03/13 00:20:47;;;;;;;85.00;50.05;;;;;;;2.13;83.18;100458.78;5090832;28;20512;-70
2021/03/13 00:23:13;;;;;;;86.40;49.35;;;;;;;2.30;82.85;100457.34;5073098;28;20032;-70
2021/03/13 00:25:41;;;;;;;84.55;50.92;;;;;;;2.38;82.42;100450.75;5090874;28;20107;-70
2021/03/13 00:28:08;;;;;;;87.43;51.60;;;;;;;2.36;81.58;100458.28;5072967;28;20054;-70
2021/03/13 00:30:41;;;;;;;91.57;50.83;;;;;;;2.18;83.41;100452.19;5073092;28;20421;-70
2021/03/13 00:33:09;;;;;;;89.28;52.63;;;;;;;2.65;81.83;100456.13;5072836;28;20047;-70
2021/03/13 00:35:35;;;;;;;90.22;54.00;;;;;;;2.74;81.02;100461.22;5072576;28;20028;-69
2021/03/13 00:38:03;;;;;;;89.57;53.10;;;;;;;2.24;83.53;100454.78;5091020;28;20028;-70
2021/03/13 00:40:31;;;;;;;96.70;57.20;;;;;;;2.11;83.06;100452.91;5090807;28;20040;-71
2021/03/13 00:42:59;;;;;;;91.72;56.10;;;;;;;2.11;84.12;100446.25;5072728;28;20554;-71
2021/03/13 00:45:27;;;;;;;83.50;50.45;;;;;;;2.33;82.30;100443.19;5091017;28;20107;-70
2021/03/13 00:47:53;;;;;;;77.50;47.70;;;;;;;2.17;82.50;100441.31;5090704;28;20467;-70
2021/03/13 00:50:23;;;;;;;78.35;47.05;;;;;;;2.11;82.41;100430.34;5090816;28;20032;-70
2021/03/13 00:52:49;;;;;;;80.18;45.35;;;;;;;2.26;83.37;100428.88;5090027;28;20418;-70
2021/03/13 00:55:16;;;;;;;75.75;41.92;;;;;;;2.32;82.52;100423.94;5090468;28;20035;-70
2021/03/13 00:57:43;;;;;;;67.75;40.63;;;;;;;1.96;83.72;100417.63;5090703;28;20412;-70
2021/03/13 01:00:14;;;;;;;70.00;41.22;;;;;;;2.32;81.77;100393.00;5072413;28;20433;-69
2021/03/13 01:02:40;;;;;;;70.85;42.83;;;;;;;2.47;82.81;100420.78;5072477;28;20024;-70
2021/03/13 01:05:08;;;;;;;77.68;45.72;;;;;;;2.57;81.51;100412.53;5090751;28;20028;-70
2021/03/13 01:07:35;;;;;;;89.53;54.35;;;;;;;2.41;82.17;100395.63;5090656;28;20028;-69
2021/03/13 01:10:12;;;;;;;81.20;48.13;;;;;;;2.27;82.88;100399.63;5076159;28;20173;-70
2021/03/13 01:12:40;;;;;;;66.70;41.53;;;;;;;2.12;83.65;100392.75;5076320;28;20035;-70
2021/03/13 01:15:10;;;;;;;63.50;38.20;;;;;;;2.13;83.19;100379.41;5094169;28;20028;-70
2021/03/13 01:17:36;;;;;;;63.17;35.80;;;;;;;2.11;83.79;100392.75;5075862;28;20039;-69
2021/03/13 01:20:11;;;;;;;56.17;33.50;;;;;;;2.31;83.82;100398.84;5075840;28;20028;-70
2021/03/13 01:22:37;;;;;;;52.30;30.48;;;;;;;1.89;84.11;100390.78;5075842;28;20028;-70
2021/03/13 01:25:06;;;;;;;52.72;31.88;;;;;;;1.70;86.25;100390.53;5094202;28;20032;-70
2021/03/13 01:27:35;;;;;;;55.15;32.85;;;;;;;2.02;84.23;100387.63;5075987;28;20020;-70
2021/03/13 01:30:03;;;;;;;52.08;31.23;;;;;;;1.94;84.21;100396.72;5093898;28;20016;-70
2021/03/13 01:32:28;;;;;;;53.03;31.38;;;;;;;1.85;85.46;100394.91;5075684;28;20028;-70
2021/03/13 01:34:54;;;;;;;56.60;32.65;;;;;;;1.98;84.42;100406.78;5093888;28;20067;-69
2021/03/13 01:37:23;;;;;;;58.45;34.20;;;;;;;2.20;84.23;100400.41;5075645;28;20508;-70
2021/03/13 01:39:49;;;;;;;57.38;33.50;;;;;;;2.20;82.83;100390.38;5093979;28;20077;-70
2021/03/13 01:42:17;;;;;;;51.47;31.65;;;;;;;2.09;83.64;100386.88;5093821;28;20020;-69
2021/03/13 01:44:47;;;;;;;57.65;33.60;;;;;;;2.11;83.43;100376.06;5075409;28;20020;-71
2021/03/13 01:47:23;;;;;;;54.92;31.95;;;;;;;2.16;83.62;100371.91;5093677;28;20486;-70
2021/03/13 01:49:54;;;;;;;52.58;31.85;;;;;;;1.99;84.70;100365.00;5075353;28;20032;-70
2021/03/13 01:52:20;;;;;;;54.53;32.42;;;;;;;2.16;84.13;100371.09;5071893;28;20048;-70
2021/03/13 01:54:47;;;;;;;55.58;31.23;;;;;;;2.37;83.67;100381.38;5073876;28;20459;-70
2021/03/13 01:57:16;;;;;;;66.32;38.75;;;;;;;2.43;83.19;100384.78;5073190;28;20024;-70
2021/03/13 01:59:43;;;;;;;63.03;36.67;;;;;;;2.06;84.25;100374.31;5072640;28;20409;-70
2021/03/13 02:02:12;;;;;;;59.75;35.08;;;;;;;2.59;82.48;100373.25;5073230;28;20037;-71
2021/03/13 02:04:39;;;;;;;56.45;33.30;;;;;;;2.16;83.51;100339.31;5071954;28;20021;-71
2021/03/13 02:07:17;;;;;;;54.25;32.03;;;;;;;2.27;83.15;100347.81;5071713;28;20115;-70
2021/03/13 02:10:20;;;;;;;49.35;30.38;;;;;;;2.29;84.35;100366.25;5073145;28;20035;-69
2021/03/13 02:13:01;;;;;;;53.10;31.42;;;;;;;2.47;83.16;100368.09;5071963;28;20498;-69
2021/03/13 02:15:54;;;;;;;53.97;31.90;;;;;;;2.45;82.66;100348.03;5073059;28;20086;-69
2021/03/13 02:18:45;;;;;;;52.63;31.10;;;;;;;2.07;84.41;100343.38;5072928;28;20028;-69
2021/03/13 02:21:19;;;;;;;54.23;32.67;;;;;;;2.00;85.07;100359.19;5071277;28;20021;-70
2021/03/13 02:24:15;;;;;;;56.45;32.83;;;;;;;2.11;85.01;100356.00;5072982;28;20044;-70
2021/03/13 02:26:50;;;;;;;55.78;31.77;;;;;;;1.73;85.82;100347.13;5071450;28;20032;-70
2021/03/13 02:29:36;;;;;;;52.00;31.77;;;;;;;1.94;85.81;100342.38;5071494;28;20401;-70
2021/03/13 02:32:05;;;;;;;55.03;31.33;;;;;;;1.90;85.49;100322.31;5072805;28;20031;-70
2021/03/13 02:34:39;;;;;;;51.47;32.13;;;;;;;1.74;85.41;100329.63;5071027;28;20028;-70
2021/03/13 02:37:14;;;;;;;53.65;31.77;;;;;;;2.27;84.81;100341.97;5071121;28;20028;-70
2021/03/13 02:39:45;;;;;;;50.17;31.23;;;;;;;2.05;84.22;100340.03;5072419;28;20444;-70
2021/03/13 02:42:14;;;;;;;52.15;30.90;;;;;;;2.29;84.08;100332.78;5072326;28;20789;-70
2021/03/13 02:44:43;;;;;;;53.20;30.88;;;;;;;2.44;83.53;100332.94;5071098;28;20051;-70
2021/03/13 02:47:10;;;;;;;53.50;31.02;;;;;;;2.21;83.59;100296.75;5071165;28;20028;-70
2021/03/13 02:49:38;;;;;;;64.95;36.03;;;;;;;2.47;82.99;100317.94;5072330;28;20028;-70
2021/03/13 02:52:07;;;;;;;73.28;37.47;;;;;;;2.36;83.40;100311.94;5072179;28;20493;-70
2021/03/13 02:54:36;;;;;;;70.00;38.85;;;;;;;2.46;83.21;100306.19;5092886;28;20043;-70
2021/03/13 02:57:05;;;;;;;62.85;37.72;;;;;;;2.38;83.71;100320.34;5074045;28;20565;-69
2021/03/13 02:59:37;;;;;;;67.13;39.33;;;;;;;2.37;83.63;100314.50;5074017;28;20468;-70
2021/03/13 03:02:03;;;;;;;65.38;39.55;;;;;;;2.08;83.92;100279.91;5092352;28;20081;-69
2021/03/13 03:04:31;;;;;;;60.28;37.10;;;;;;;2.39;83.90;100309.50;5092100;28;20028;-70
2021/03/13 03:06:58;;;;;;;61.70;37.63;;;;;;;2.38;84.38;100303.63;5091835;28;20028;-70
2021/03/13 03:09:27;;;;;;;49.80;31.50;;;;;;;1.89;84.71;100313.09;5092510;28;20067;-70
2021/03/13 03:11:54;;;;;;;50.97;30.83;;;;;;;2.04;84.48;100329.16;5073873;28;20031;-70
2021/03/13 03:14:22;;;;;;;47.13;29.10;;;;;;;1.90;84.26;100332.34;5091963;28;20028;-70
2021/03/13 03:16:54;;;;;;;48.22;30.25;;;;;;;1.94;84.10;100317.31;5092207;28;20035;-70
2021/03/13 03:19:22;;;;;;;48.20;31.23;;;;;;;1.69;84.05;100313.69;5091814;28;20032;-70
2021/03/13 03:21:49;;;;;;;46.88;28.30;;;;;;;1.67;85.12;100307.81;5091778;28;20032;-69
2021/03/13 03:24:16;;;;;;;48.08;28.77;;;;;;;1.77;85.44;100312.13;5073657;28;20043;-70
2021/03/13 03:26:45;;;;;;;49.88;29.80;;;;;;;1.91;84.35;100316.47;5073443;28;20401;-70
2021/03/13 03:29:12;;;;;;;49.30;30.35;;;;;;;2.09;83.74;100311.66;5091741;28;20020;-70
2021/03/13 03:31:40;;;;;;;53.05;32.47;;;;;;;1.99;84.16;100322.41;5073084;28;20031;-70
2021/03/13 03:34:08;;;;;;;51.13;32.45;;;;;;;2.09;83.78;100314.16;5073401;28;20023;-70
2021/03/13 03:36:43;;;;;;;51.78;30.83;;;;;;;1.81;85.19;100312.16;5091693;28;20057;-70
2021/03/13 03:39:11;;;;;;;53.22;31.20;;;;;;;1.75;84.88;100298.75;5091481;28;20107;-69
2021/03/13 03:41:42;;;;;;;60.03;33.22;;;;;;;2.07;84.32;100308.28;5091505;28;20426;-70
2021/03/13 03:44:19;;;;;;;40.92;23.85;;;;;;;2.01;85.20;100314.09;5073690;28;20027;-70
2021/03/13 03:46:47;;;;;;;55.85;33.15;;;;;;;2.03;85.15;100309.09;5091393;28;20116;-71
2021/03/13 03:49:15;;;;;;;60.97;35.58;;;;;;;2.14;84.90;100310.88;5091455;28;20027;-69
2021/03/13 03:51:43;;;;;;;56.92;33.78;;;;;;;2.27;83.95;100304.34;5073143;28;20020;-70
2021/03/13 03:54:11;;;;;;;57.65;34.10;;;;;;;2.03;84.63;100311.59;5091458;28;20083;-70
2021/03/13 03:56:42;;;;;;;55.67;34.85;;;;;;;1.83;86.03;100313.00;5073002;28;20028;-70
2021/03/13 03:59:16;;;;;;;55.17;34.75;;;;;;;2.06;84.53;100309.97;5073123;28;20027;-70
2021/03/13 04:01:48;;;;;;;60.13;37.00;;;;;;;2.33;83.91;100302.75;5091094;28;20110;-70
2021/03/13 04:04:18;;;;;;;65.22;40.17;;;;;;;2.27;83.56;100304.34;5073059;28;20489;-70
2021/03/13 04:06:43;;;;;;;64.43;39.78;;;;;;;2.30;83.35;100307.72;5091210;28;20036;-69
2021/03/13 04:09:22;;;;;;;73.80;46.30;;;;;;;2.04;85.40;100315.81;5091173;28;20036;-70
2021/03/13 04:11:50;;;;;;;91.45;52.83;;;;;;;2.12;85.03;100326.75;5091028;28;20558;-71
2021/03/13 04:14:16;;;;;;;74.53;45.65;;;;;;;2.21;85.00;100327.69;5073130;28;20089;-70
2021/03/13 04:16:42;;;;;;;73.45;44.08;;;;;;;2.00;85.53;100316.59;5091175;28;20480;-70
2021/03/13 04:19:11;;;;;;;65.65;41.10;;;;;;;1.92;84.45;100318.16;5072882;28;20090;-70
2021/03/13 04:21:37;;;;;;;60.97;35.90;;;;;;;1.48;85.33;100310.06;5090992;28;20028;-70
2021/03/13 04:24:04;;;;;;;53.80;33.50;;;;;;;1.45;85.95;100325.03;5091406;28;20038;-70
2021/03/13 04:26:31;;;;;;;49.65;30.77;;;;;;;1.29;86.35;100326.47;5072925;28;20470;-71
2021/03/13 04:28:57;;;;;;;49.65;30.20;;;;;;;1.17;87.54;100331.31;5091073;28;20085;-71
2021/03/13 04:31:27;;;;;;;51.95;30.95;;;;;;;1.07;88.62;100316.97;5072808;28;20028;-69
2021/03/13 04:33:54;;;;;;;56.15;32.45;;;;;;;1.32;86.11;100311.53;5091558;28;20032;-70
2021/03/13 04:36:23;;;;;;;53.60;32.95;;;;;;;1.56;84.91;100309.38;5090886;28;20485;-70
2021/03/13 04:38:49;;;;;;;53.65;31.48;;;;;;;1.72;84.41;100331.25;5090819;28;20028;-71
2021/03/13 04:41:15;;;;;;;71.80;43.30;;;;;;;1.73;85.14;100348.00;5072858;28;20397;-70
2021/03/13 04:43:42;;;;;;;165.55;97.07;;;;;;;1.54;85.89;100348.56;5074456;28;20024;-71
2021/03/13 04:46:10;;;;;;;172.05;103.70;;;;;;;1.69;85.52;100353.78;5094795;28;20491;-70
2021/03/13 04:48:37;;;;;;;122.88;72.53;;;;;;;1.58;85.26;100346.94;5094909;28;20489;-71
2021/03/13 04:51:05;;;;;;;79.53;49.10;;;;;;;1.98;84.14;100350.81;5076441;28;20024;-70
2021/03/13 04:53:32;;;;;;;70.25;41.55;;;;;;;1.67;84.46;100350.41;5094626;28;20048;-71
2021/03/13 04:55:58;;;;;;;64.38;38.30;;;;;;;1.87;84.45;100345.66;5094753;28;20024;-70
2021/03/13 04:58:24;;;;;;;69.15;40.83;;;;;;;1.99;84.45;100345.81;5094596;28;20031;-70
2021/03/13 05:00:52;;;;;;;69.43;41.97;;;;;;;1.80;84.75;100343.91;5094625;28;20028;-70
2021/03/13 05:03:21;;;;;;;70.97;42.40;;;;;;;1.99;83.74;100330.78;5075726;28;20020;-71
2021/03/13 05:05:49;;;;;;;86.30;51.35;;;;;;;1.98;84.46;100354.13;5075923;28;20031;-71
2021/03/13 05:08:17;;;;;;;110.38;67.65;;;;;;;2.02;83.97;100342.50;5076290;28;20028;-70
2021/03/13 05:10:42;;;;;;;104.60;62.50;;;;;;;2.40;82.42;100349.63;5075151;28;20024;-70
2021/03/13 05:13:15;;;;;;;88.85;53.58;;;;;;;2.64;80.91;100349.88;5093436;28;20024;-72
2021/03/13 05:15:41;;;;;;;88.53;48.00;;;;;;;3.36;79.11;100319.50;5094898;28;20028;-75
2021/03/13 05:18:26;;;;;;;94.07;51.78;;;;;;;4.26;75.75;100348.41;5077053;28;20406;-74
2021/03/13 05:20:57;;;;;;;86.15;48.47;;;;;;;3.97;75.78;100344.97;5076634;28;20027;-74
2021/03/13 05:23:26;;;;;;;92.60;49.60;;;;;;;3.89;75.78;100360.03;5076888;28;20032;-75
2021/03/13 05:26:00;;;;;;;67.85;39.10;;;;;;;4.07;74.70;100355.06;5076902;28;20024;-75
2021/03/13 05:28:41;;;;;;;76.88;46.35;;;;;;;3.49;77.32;100356.44;5076861;28;20020;-75
2021/03/13 05:31:10;;;;;;;66.22;40.40;;;;;;;3.80;75.93;100362.50;5076645;28;20024;-75
2021/03/13 05:33:36;;;;;;;74.25;48.40;;;;;;;3.28;79.01;100345.41;5076366;28;20024;-74
2021/03/13 05:36:19;;;;;;;67.82;41.08;;;;;;;3.34;79.29;100346.31;5076296;28;20016;-75
2021/03/13 05:38:46;;;;;;;63.25;39.13;;;;;;;3.16;79.33;100347.81;5076142;28;20065;-75
2021/03/13 05:41:26;;;;;;;75.40;46.22;;;;;;;3.92;77.58;100349.16;5094626;28;20031;-74
2021/03/13 05:43:53;;;;;;;70.03;42.60;;;;;;;3.50;78.47;100339.69;5093751;28;20027;-75
2021/03/13 05:46:23;;;;;;;70.68;40.80;;;;;;;3.60;78.75;100348.13;5075395;28;20028;-75
2021/03/13 05:48:50;;;;;;;102.13;59.17;;;;;;;3.53;77.98;100348.94;5075350;28;20020;-75
2021/03/13 05:51:23;;;;;;;87.95;53.42;;;;;;;3.51;79.74;100372.38;5076301;28;20042;-74
2021/03/13 05:53:51;;;;;;;93.68;58.85;;;;;;;3.53;79.20;100374.88;5074437;28;20064;-75
2021/03/13 05:59:38;;;;;;;109.55;67.50;;;;;;;3.81;77.39;100350.75;5093754;28;20176;-76
2021/03/13 06:02:16;;;;;;;109.32;69.47;;;;;;;4.16;77.35;100350.06;5094018;28;20020;-75
2021/03/13 06:04:47;;;;;;;125.60;84.05;;;;;;;4.23;77.04;100340.88;5074826;28;20413;-75
2021/03/13 06:07:53;;;;;;;81.60;51.60;;;;;;;4.42;76.89;100349.34;5093823;28;20402;-76
2021/03/13 06:10:19;;;;;;;112.90;74.45;;;;;;;4.47;76.54;100357.72;5076194;28;20028;-76
2021/03/13 06:12:50;;;;;;;111.97;77.50;;;;;;;4.88;75.31;100351.06;5075572;28;20456;-76
2021/03/13 06:15:34;;;;;;;102.80;65.53;;;;;;;4.77;77.25;100357.78;5093932;28;20046;-76
2021/03/13 06:18:10;;;;;;;100.47;69.95;;;;;;;4.92;75.37;100356.13;5076021;28;20032;-75
2021/03/13 06:20:42;;;;;;;92.88;64.50;;;;;;;4.76;76.65;100367.00;5093590;28;20024;-75
2021/03/13 06:23:15;;;;;;;85.53;58.38;;;;;;;4.97;76.23;100376.28;5075783;28;20035;-74
2021/03/13 06:25:48;;;;;;;76.28;53.33;;;;;;;4.78;78.05;100388.00;5075492;28;20039;-73
2021/03/13 06:28:19;;;;;;;63.63;42.78;;;;;;;4.74;77.10;100383.78;5072374;28;20067;-76
2021/03/13 06:31:04;;;;;;;74.82;48.35;;;;;;;4.49;78.46;100379.56;5073054;28;20020;-73
2021/03/13 06:33:32;;;;;;;85.82;56.83;;;;;;;4.62;77.20;100388.81;5055241;28;20188;-74
2021/03/13 06:36:00;;;;;;;85.60;59.03;;;;;;;5.16;75.63;100390.56;5054172;28;20035;-74
2021/03/13 06:38:28;;;;;;;103.72;69.60;;;;;;;5.05;76.18;100372.91;5072571;28;20115;-75
2021/03/13 06:41:12;;;;;;;114.30;76.53;;;;;;;5.13;76.17;100393.09;5072681;28;20032;-75
2021/03/13 06:43:58;;;;;;;104.18;65.25;;;;;;;4.97;76.31;100377.09;5054282;28;20506;-73
2021/03/13 06:46:37;;;;;;;115.97;73.28;;;;;;;5.02;77.10;100394.75;5054947;28;20110;-76
2021/03/13 06:49:04;;;;;;;101.40;67.30;;;;;;;5.24;76.21;100387.22;5072949;28;20508;-76
2021/03/13 06:51:32;;;;;;;115.43;77.15;;;;;;;5.04;76.62;100373.78;5053794;28;20028;-76
2021/03/13 06:54:15;;;;;;;142.65;94.35;;;;;;;4.79;78.27;100377.09;5054715;28;20060;-75
2021/03/13 06:56:53;;;;;;;122.70;79.45;;;;;;;5.52;77.49;100389.72;5054753;28;20029;-76
2021/03/13 07:02:07;;;;;;;62.15;39.53;;;;;;;5.63;76.49;100385.47;5073083;28;20054;-75
2021/03/13 07:04:43;;;;;;;60.03;40.38;;;;;;;6.57;73.61;100383.53;5054412;28;20028;-76
2021/03/13 07:07:31;;;;;;;56.92;37.45;;;;;;;6.45;74.49;100381.91;5054938;28;20032;-75
2021/03/13 07:10:10;;;;;;;49.33;31.33;;;;;;;6.82;72.35;100368.22;5054399;28;20056;-76
2021/03/13 07:12:41;;;;;;;48.10;32.72;;;;;;;7.28;70.84;100376.28;5054246;28;20120;-76
2021/03/13 07:15:29;;;;;;;46.55;30.92;;;;;;;7.72;68.84;100378.41;5054401;28;20039;-75
2021/03/13 07:17:59;;;;;;;46.13;31.45;;;;;;;7.87;68.37;100378.25;5054134;28;20032;-74
2021/03/13 07:20:31;;;;;;;44.47;30.30;;;;;;;7.64;68.03;100360.78;5053607;28;20055;-76
2021/03/13 07:23:05;;;;;;;51.90;31.80;;;;;;;7.60;69.34;100383.59;5054666;28;20037;-76
2021/03/13 07:25:37;;;;;;;50.03;32.33;;;;;;;8.48;65.78;100373.31;5054518;28;20024;-76
2021/03/13 07:28:06;;;;;;;;;;;;;;;7.86;67.84;100369.81;5052524;28;20079;-77
2021/03/13 07:30:40;;;;;;;41.17;28.48;;;;;;;8.08;68.73;100357.75;5054282;28;19962;-75
2021/03/13 07:33:09;;;;;;;43.05;29.75;;;;;;;8.54;67.07;100333.53;5054001;28;20058;-74
2021/03/13 07:36:04;;;;;;;46.80;30.45;;;;;;;8.19;69.17;100360.16;5053734;28;20115;-75
2021/03/13 07:38:38;;;;;;;50.58;35.65;;;;;;;8.49;68.77;100347.13;5051008;28;20033;-74
2021/03/13 07:41:08;;;;;;;51.83;35.83;;;;;;;8.95;67.63;100357.44;5054008;28;20063;-75
2021/03/13 07:43:38;;;;;;;62.80;43.67;;;;;;;8.68;68.32;100354.44;5053601;28;20035;-74
2021/03/13 07:46:09;;;;;;;59.95;40.20;;;;;;;8.38;70.11;100364.16;5053844;28;20481;-75
2021/03/13 07:48:40;;;;;;;62.67;43.17;;;;;;;9.09;67.78;100348.75;5053720;28;20089;-75
2021/03/13 07:51:32;;;;;;;62.28;42.90;;;;;;;8.71;69.55;100363.72;5071382;28;20033;-75
2021/03/13 07:54:00;;;;;;;56.78;38.20;;;;;;;9.04;67.76;100357.28;5072088;28;20059;-74
2021/03/13 07:56:53;;;;;;;59.38;39.05;;;;;;;8.85;67.90;100360.97;5053828;28;20064;-75
2021/03/13 07:59:50;;;;;;;;;;;;;;;8.73;68.92;100364.53;5053718;28;20500;-75
2021/03/13 08:02:35;;;;;;;54.80;35.13;;;;;;;8.65;70.23;100358.72;5052858;28;19916;-76
2021/03/13 08:05:27;;;;;;;45.53;32.35;;;;;;;8.47;71.35;100354.75;5052513;28;20024;-76
2021/03/13 08:08:03;;;;;;;49.50;34.40;;;;;;;8.37;72.11;100355.75;5071388;28;20028;-75
2021/03/13 08:10:47;;;;;;;51.20;35.85;;;;;;;8.52;71.68;100324.28;5053405;28;20036;-76
2021/03/13 08:13:41;;;;;;;44.22;31.55;;;;;;;9.00;69.62;100350.59;5053028;28;20062;-75
2021/03/13 08:16:11;;;;;;;59.38;42.05;;;;;;;9.16;70.23;100357.09;5054393;28;20024;-76
2021/03/13 08:18:58;;;;;;;42.22;31.30;;;;;;;9.15;69.20;100353.72;5053336;28;20029;-75
2021/03/13 08:21:23;;;;;;;46.17;31.08;;;;;;;9.86;67.97;100357.56;5053164;28;20028;-75
2021/03/13 08:23:57;;;;;;;43.65;30.88;;;;;;;9.13;70.04;100362.22;5069440;28;20044;-75
2021/03/13 08:26:43;;;;;;;41.35;29.48;;;;;;;9.80;68.11;100351.75;4702996;28;10001093;-77
2021/03/13 08:29:11;;;;;;;40.78;27.52;;;;;;;10.27;66.60;100342.34;5049719;28;20039;-75
2021/03/13 08:31:45;;;;;;;60.38;35.08;;;;;;;10.45;65.63;100331.78;5049645;28;20031;-75
2021/03/13 08:34:17;;;;;;;60.70;29.50;;;;;;;10.63;64.21;100329.72;5049594;28;20025;-76
2021/03/13 08:36:47;;;;;;;41.13;25.88;;;;;;;11.13;62.71;100326.81;5067493;28;20025;-75
2021/03/13 08:39:23;;;;;;;35.63;25.17;;;;;;;10.89;63.86;100337.56;5050257;28;20104;-75
2021/03/13 08:42:28;;;;;;;69.43;36.67;;;;;;;10.60;65.79;100342.50;5068540;28;20093;-76
2021/03/13 08:45:15;;;;;;;49.20;31.15;;;;;;;10.57;65.23;100340.00;5067468;28;20028;-77
2021/03/13 08:47:54;;;;;;;36.85;24.27;;;;;;;10.44;65.75;100317.41;5066987;28;20037;-76
2021/03/13 08:50:58;;;;;;;52.00;32.10;;;;;;;10.28;66.35;100343.19;5050702;28;20537;-78
2021/03/13 08:54:02;;;;;;;59.20;35.15;;;;;;;9.84;67.89;100328.81;5051129;28;20060;-78
2021/03/13 08:56:52;;;;;;;33.95;25.60;;;;;;;10.06;67.88;100324.97;5050295;28;20054;-78
2021/03/13 08:59:20;;;;;;;37.53;26.70;;;;;;;10.83;65.42;100319.91;5050267;28;20043;-76
2021/03/13 09:02:02;;;;;;;40.17;27.95;;;;;;;10.68;67.35;100307.53;5049777;28;20073;-76
2021/03/13 09:04:28;;;;;;;;;;;;;;;10.35;67.60;100306.59;5050365;28;20036;-77
2021/03/13 09:06:57;;;;;;;30.73;22.67;;;;;;;11.13;64.37;100303.91;5067452;28;19916;-77
2021/03/13 09:09:26;;;;;;;34.50;24.13;;;;;;;10.92;64.92;100282.38;5048698;28;20570;-74
2021/03/13 09:11:56;;;;;;;39.70;26.15;;;;;;;9.85;67.05;100283.94;5048176;28;20028;-75
2021/03/13 09:14:24;;;;;;;32.58;23.23;;;;;;;10.40;66.07;100285.31;5068117;28;20056;-76
2021/03/13 09:16:50;;;;;;;36.38;23.88;;;;;;;9.90;65.49;100289.75;5050740;28;20550;-75
2021/03/13 09:19:16;;;;;;;34.03;23.05;;;;;;;10.53;65.75;100297.72;5049528;28;20028;-75
2021/03/13 09:21:52;;;;;;;31.08;23.13;;;;;;;10.64;66.00;100283.06;5050350;28;20461;-75
2021/03/13 09:24:20;;;;;;;30.40;24.17;;;;;;;10.62;65.16;100283.09;5053459;28;20043;-78
2021/03/13 09:26:55;;;;;;;29.98;21.40;;;;;;;11.00;62.56;100282.19;5070688;28;20421;-76
2021/03/13 09:29:27;;;;;;;28.20;20.67;;;;;;;10.71;64.11;100287.16;5071018;28;20020;-76
2021/03/13 09:31:56;;;;;;;33.20;22.45;;;;;;;11.48;61.65;100293.66;5073566;28;20031;-76
2021/03/13 09:34:23;;;;;;;32.50;23.30;;;;;;;10.78;64.07;100296.28;5073074;28;20401;-74
2021/03/13 09:36:52;;;;;;;31.92;22.27;;;;;;;10.48;64.51;100299.56;5073025;28;20070;-77
2021/03/13 09:39:28;;;;;;;30.25;22.13;;;;;;;10.44;64.36;100281.81;5073181;28;20040;-77
2021/03/13 09:42:04;;;;;;;33.90;24.98;;;;;;;10.79;64.81;100288.66;5073233;28;20058;-77
2021/03/13 09:44:36;;;;;;;30.75;23.30;;;;;;;9.62;66.73;100297.09;5073669;28;20085;-77
2021/03/13 09:47:15;;;;;;;33.53;24.55;;;;;;;10.65;64.58;100294.91;5091963;28;20043;-75
2021/03/13 09:49:48;;;;;;;32.03;24.75;;;;;;;10.79;63.93;100290.34;5090604;28;20032;-75
2021/03/13 09:52:14;;;;;;;144.43;70.80;;;;;;;10.73;64.24;100287.94;5073529;28;20868;-75
2021/03/13 09:54:43;;;;;;;68.97;41.63;;;;;;;10.77;64.77;100299.72;5073824;28;20063;-76
2021/03/13 09:57:13;;;;;;;46.00;32.08;;;;;;;10.52;65.07;100314.69;5073240;28;20024;-77
2021/03/13 09:59:41;;;;;;;42.53;31.00;;;;;;;11.31;63.63;100316.16;5072765;28;20115;-76
2021/03/13 10:02:08;;;;;;;34.28;23.15;;;;;;;10.87;66.03;100296.09;5091518;28;20546;-74
2021/03/13 10:04:35;;;;;;;35.78;27.20;;;;;;;10.90;64.90;100306.16;5073164;28;20030;-74
2021/03/13 10:07:02;;;;;;;36.90;25.90;;;;;;;11.17;64.02;100280.88;5091701;28;20039;-75
2021/03/13 10:09:29;;;;;;;37.40;27.55;;;;;;;11.13;63.86;100291.19;5073956;28;20150;-76
2021/03/13 10:12:02;;;;;;;41.30;29.42;;;;;;;11.16;63.91;100293.66;5071250;28;20039;-76
2021/03/13 10:14:28;;;;;;;34.55;26.80;;;;;;;10.66;65.07;100301.66;5071562;28;20024;-78
2021/03/13 10:17:01;;;;;;;33.20;25.10;;;;;;;11.27;63.68;100297.59;5072423;28;20032;-77
2021/03/13 10:19:41;;;;;;;34.47;27.10;;;;;;;11.43;63.71;100287.84;5072020;28;20036;-76
2021/03/13 10:22:11;;;;;;;31.20;24.70;;;;;;;12.62;60.75;100284.38;5071511;28;20054;-77
2021/03/13 10:24:50;;;;;;;42.30;26.67;;;;;;;12.64;59.13;100294.53;5065733;28;20043;-76
2021/03/13 10:27:29;;;;;;;34.30;25.25;;;;;;;12.97;58.61;100304.50;5069851;28;20029;-75
2021/03/13 10:29:58;;;;;;;34.20;24.00;;;;;;;12.85;58.66;100289.59;5052432;28;20017;-76
2021/03/13 10:32:26;;;;;;;32.42;24.05;;;;;;;13.22;57.75;100275.63;5052683;28;20150;-77
2021/03/13 10:35:33;;;;;;;37.13;27.13;;;;;;;13.65;56.46;100284.31;5070809;28;20029;-76
2021/03/13 10:38:15;;;;;;;25.15;19.70;;;;;;;11.96;59.54;100277.03;5056316;28;20029;-78
2021/03/13 10:40:47;;;;;;;27.65;20.88;;;;;;;12.93;57.88;100268.94;5050348;28;20024;-76
2021/03/13 10:43:37;;;;;;;32.10;23.60;;;;;;;13.20;57.83;100256.97;5052059;28;20397;-77
2021/03/13 10:46:04;;;;;;;24.08;18.27;;;;;;;12.49;60.62;100269.50;5042836;28;20047;-76
2021/03/13 10:48:34;;;;;;;21.42;16.88;;;;;;;12.04;59.76;100249.63;5069959;28;20032;-76
2021/03/13 10:51:01;;;;;;;27.75;21.25;;;;;;;12.49;60.63;100233.81;5070580;28;20041;-74
2021/03/13 10:53:40;;;;;;;22.85;17.92;;;;;;;12.20;60.90;100234.72;5053190;28;20552;-77
2021/03/13 10:56:15;;;;;;;27.42;18.70;;;;;;;12.42;59.92;100243.34;4701615;28;10000438;-78
2021/03/13 10:58:51;;;;;;;18.60;15.52;;;;;;;11.78;60.50;100244.47;5071606;28;20049;-78
2021/03/13 11:01:20;;;;;;;20.63;15.82;;;;;;;12.80;59.07;100237.03;5090341;28;20039;-76
2021/03/13 11:03:47;;;;;;;23.65;18.80;;;;;;;11.92;60.95;100234.69;5072226;28;20089;-76
2021/03/13 11:06:24;;;;;;;23.40;17.50;;;;;;;12.52;59.87;100234.53;5072466;28;20024;-77
2021/03/13 11:08:52;;;;;;;26.90;19.13;;;;;;;12.44;61.08;100233.94;5089866;28;20067;-76
2021/03/13 11:11:19;;;;;;;33.40;22.13;;;;;;;12.68;59.90;100245.91;5072216;28;20085;-77
2021/03/13 11:13:44;;;;;;;29.17;18.83;;;;;;;12.57;60.09;100224.19;5072509;28;20096;-76
2021/03/13 11:16:11;;;;;;;21.73;16.95;;;;;;;12.72;59.88;100210.94;5072422;28;20571;-78
2021/03/13 11:18:36;;;;;;;18.02;15.15;;;;;;;12.55;58.60;100231.91;5071986;28;20065;-76
2021/03/13 11:21:03;;;;;;;21.33;16.85;;;;;;;12.39;60.64;100224.78;5071289;28;20028;-75
2021/03/13 11:23:29;;;;;;;25.35;19.65;;;;;;;12.28;60.56;100226.84;5071884;28;20032;-77
2021/03/13 11:25:54;;;;;;;26.38;19.85;;;;;;;12.60;60.28;100227.47;5071991;28;20047;-79
2021/03/13 11:28:23;;;;;;;25.58;18.83;;;;;;;12.12;61.58;100231.56;5071640;28;20044;-76
2021/03/13 11:30:49;;;;;;;24.17;18.25;;;;;;;12.29;60.69;100226.78;5089407;28;20028;-77
2021/03/13 11:33:15;;;;;;;24.40;18.33;;;;;;;12.56;60.47;100237.81;5070081;28;20039;-79
2021/03/13 11:35:43;;;;;;;25.48;18.85;;;;;;;12.55;59.89;100234.47;5070561;28;20032;-76
2021/03/13 11:38:10;;;;;;;32.97;20.55;;;;;;;13.27;58.78;100220.97;5071267;28;20064;-76
2021/03/13 11:40:36;;;;;;;28.92;19.60;;;;;;;12.87;58.94;100225.75;5089574;28;20417;-76
2021/03/13 11:43:06;;;;;;;24.05;19.02;;;;;;;12.96;59.92;100210.97;5071613;28;20035;-78